Hays, KS (67601)

5:54 PM CDT on August 21, 2014 (GMT -0500)
Rural Ellis Co. | Change Station
CLOSE
Current Station
Personal Weather Station
Location: Hays, KS
Elevation: 2077 ft
Nearby Weather Stations

Elev 2077 ft 38.81 °N, 99.37 °W | Updated 4 minutes ago

Mostly Cloudy
Mostly Cloudy
99.7 °F
Feels Like 108 °F
N
10.9
Wind Variable Wind from South

Today
High -- | Low -- °F
--% Chance of Precip.
Yesterday
High -- | Low -- °F
Precip. -- in
6:56 AM 8:23 PM
Waning Crescent, 12% visible
Pressure 29.82 in
Visibility 10.0 miles
Clouds Mostly Cloudy 10000 ft
Heat Index 108 °F
Dew Point 70 °F
Humidity 39%
Rainfall 0.00 in
Snow Depth Not available.
UV 2 out of 12
Pollen 11.20 out of 12
Air Quality Not available.
Flu Activity Not available.
METAR KHYS 212235Z 18017G22KT 10SM BKN100 36/18 A2982 RMK AO1 LTG DSNT N

More Conditions Fewer Conditions

Pressure 29.82 in
Visibility 10.0 miles
Clouds Mostly Cloudy 10000 ft
Heat Index 108 °F
Dew Point 70 °F
Humidity 39%
Rainfall 0.00 in
Snow Depth Not available.
UV 2 out of 12
Pollen 11.20 out of 12
Air Quality Not available.
Flu Activity Not available.
METAR KHYS 212235Z 18017G22KT 10SM BKN100 36/18 A2982 RMK AO1 LTG DSNT N

More Conditions Fewer Conditions

10-Day Weather Forecast

Almanac

Astronomy

Aug. 21, 2014 Rise Set
Actual Time 6:56 AM CDT 8:23 PM CDT
Civil Twilight 6:28 AM CDT 8:51 PM CDT
Nautical Twilight 5:55 AM CDT 9:25 PM CDT
Astronomical Twilight 5:19 AM CDT 10:00 PM CDT
Moon 3:29 AM CDT 5:53 PM CDT
Length of Visible Light 14h 23m
Length of Day
13h 27m
Tomorrow will be 2m 20s shorter.
Waning Crescent, 12% of the Moon is Illuminated
Today
Waning Crescent
Aug 25
New
Sep 2
First Quarter
Sep 8
Full
Sep 15
Last Quarter

Today's Extremes

State Highs State Lows

Community

WunderPhotos

Upload Photos

1,746,044 photos uploaded!

WunderBlogs® & News

Nearby

Snow Depth

Station Depth Elevation
No new snow has been reported.

Earthquake Activity

City Distance Mag. Time & Date
Medford, Oklahoma 162 miles 2.7 2:28 AM CDT
2014-08-17
Medford, Oklahoma 161 miles 3.5 1:31 AM CDT
2014-08-17
Medford, Oklahoma 161 miles 3.8 1:18 AM CDT
2014-08-17
Medford, Oklahoma 161 miles 3.4 5:54 AM CDT
2014-08-16
Minimum magnitude displayed is 2.5.

Coastal Water Temperatures

Place Temperature
No Stations Reporting

Nearby Weather Stations